sensor_id;sensor_type;location;lat;lon;timestamp;P1;durP1;ratioP1;P2;durP2;ratioP2
11488;SDS011;5801;50.804;12.638;2023-07-22T00:00:17;9.20;;;3.67;;
11488;SDS011;5801;50.804;12.638;2023-07-22T00:02:44;9.20;;;3.70;;
11488;SDS011;5801;50.804;12.638;2023-07-22T00:05:09;13.80;;;3.67;;
11488;SDS011;5801;50.804;12.638;2023-07-22T00:07:36;11.98;;;3.45;;
11488;SDS011;5801;50.804;12.638;2023-07-22T00:10:02;12.65;;;4.05;;
11488;SDS011;5801;50.804;12.638;2023-07-22T00:12:28;5.47;;;3.28;;
11488;SDS011;5801;50.804;12.638;2023-07-22T00:14:54;5.40;;;3.50;;
11488;SDS011;5801;50.804;12.638;2023-07-22T00:17:20;14.23;;;3.78;;
11488;SDS011;5801;50.804;12.638;2023-07-22T00:19:47;7.95;;;3.40;;
11488;SDS011;5801;50.804;12.638;2023-07-22T00:22:13;14.98;;;3.70;;
11488;SDS011;5801;50.804;12.638;2023-07-22T00:24:40;4.72;;;3.60;;
11488;SDS011;5801;50.804;12.638;2023-07-22T00:27:06;5.13;;;3.55;;
11488;SDS011;5801;50.804;12.638;2023-07-22T00:29:33;5.40;;;2.90;;
11488;SDS011;5801;50.804;12.638;2023-07-22T00:32:00;5.22;;;4.00;;
11488;SDS011;5801;50.804;12.638;2023-07-22T00:34:26;18.55;;;3.75;;
11488;SDS011;5801;50.804;12.638;2023-07-22T00:36:52;15.70;;;3.60;;
11488;SDS011;5801;50.804;12.638;2023-07-22T00:39:18;7.45;;;3.00;;
11488;SDS011;5801;50.804;12.638;2023-07-22T00:41:45;10.13;;;3.10;;
11488;SDS011;5801;50.804;12.638;2023-07-22T00:44:11;17.35;;;4.53;;
11488;SDS011;5801;50.804;12.638;2023-07-22T00:46:38;8.40;;;3.63;;
11488;SDS011;5801;50.804;12.638;2023-07-22T00:49:07;17.50;;;4.20;;
11488;SDS011;5801;50.804;12.638;2023-07-22T00:51:33;16.20;;;3.75;;
11488;SDS011;5801;50.804;12.638;2023-07-22T00:54:00;8.43;;;3.40;;
11488;SDS011;5801;50.804;12.638;2023-07-22T00:56:26;15.57;;;3.22;;
11488;SDS011;5801;50.804;12.638;2023-07-22T00:58:52;15.88;;;4.35;;
11488;SDS011;5801;50.804;12.638;2023-07-22T01:01:18;12.88;;;3.40;;
11488;SDS011;5801;50.804;12.638;2023-07-22T01:03:44;10.68;;;3.88;;
11488;SDS011;5801;50.804;12.638;2023-07-22T01:06:11;8.98;;;3.60;;
11488;SDS011;5801;50.804;12.638;2023-07-22T01:08:38;7.93;;;3.22;;
11488;SDS011;5801;50.804;12.638;2023-07-22T01:11:04;5.60;;;3.60;;
11488;SDS011;5801;50.804;12.638;2023-07-22T01:13:31;14.48;;;3.63;;
11488;SDS011;5801;50.804;12.638;2023-07-22T01:15:57;15.95;;;4.13;;
11488;SDS011;5801;50.804;12.638;2023-07-22T01:18:23;6.65;;;3.42;;
11488;SDS011;5801;50.804;12.638;2023-07-22T01:20:50;9.27;;;4.22;;
11488;SDS011;5801;50.804;12.638;2023-07-22T01:23:16;20.95;;;4.63;;
11488;SDS011;5801;50.804;12.638;2023-07-22T01:25:42;28.95;;;4.00;;
11488;SDS011;5801;50.804;12.638;2023-07-22T01:28:09;11.85;;;4.10;;
11488;SDS011;5801;50.804;12.638;2023-07-22T01:30:36;20.27;;;4.38;;
11488;SDS011;5801;50.804;12.638;2023-07-22T01:33:02;30.20;;;4.65;;
11488;SDS011;5801;50.804;12.638;2023-07-22T01:35:28;13.45;;;4.57;;
11488;SDS011;5801;50.804;12.638;2023-07-22T01:37:54;10.60;;;3.55;;
11488;SDS011;5801;50.804;12.638;2023-07-22T01:40:20;14.70;;;3.33;;
11488;SDS011;5801;50.804;12.638;2023-07-22T01:42:48;15.20;;;3.60;;
11488;SDS011;5801;50.804;12.638;2023-07-22T01:45:14;20.38;;;4.07;;
11488;SDS011;5801;50.804;12.638;2023-07-22T01:47:40;14.98;;;4.28;;
11488;SDS011;5801;50.804;12.638;2023-07-22T01:50:07;20.38;;;4.45;;
11488;SDS011;5801;50.804;12.638;2023-07-22T01:52:34;20.30;;;4.25;;
11488;SDS011;5801;50.804;12.638;2023-07-22T01:54:59;13.35;;;3.55;;
11488;SDS011;5801;50.804;12.638;2023-07-22T01:57:26;10.70;;;3.47;;
11488;SDS011;5801;50.804;12.638;2023-07-22T01:59:51;10.82;;;3.42;;
11488;SDS011;5801;50.804;12.638;2023-07-22T02:02:18;13.13;;;3.40;;
11488;SDS011;5801;50.804;12.638;2023-07-22T02:04:45;7.95;;;3.67;;
11488;SDS011;5801;50.804;12.638;2023-07-22T02:07:11;18.02;;;4.45;;
11488;SDS011;5801;50.804;12.638;2023-07-22T02:09:36;14.68;;;4.15;;
11488;SDS011;5801;50.804;12.638;2023-07-22T02:12:03;11.35;;;3.92;;
11488;SDS011;5801;50.804;12.638;2023-07-22T02:14:29;18.15;;;4.50;;
11488;SDS011;5801;50.804;12.638;2023-07-22T02:16:55;12.68;;;3.67;;
11488;SDS011;5801;50.804;12.638;2023-07-22T02:19:20;16.58;;;4.00;;
11488;SDS011;5801;50.804;12.638;2023-07-22T02:21:46;15.35;;;3.90;;
11488;SDS011;5801;50.804;12.638;2023-07-22T02:24:14;21.35;;;4.32;;
11488;SDS011;5801;50.804;12.638;2023-07-22T02:26:41;12.48;;;3.75;;
11488;SDS011;5801;50.804;12.638;2023-07-22T02:29:07;9.85;;;3.75;;
11488;SDS011;5801;50.804;12.638;2023-07-22T02:31:33;11.52;;;4.25;;
11488;SDS011;5801;50.804;12.638;2023-07-22T02:33:59;8.88;;;3.88;;
11488;SDS011;5801;50.804;12.638;2023-07-22T02:36:25;18.60;;;3.83;;
11488;SDS011;5801;50.804;12.638;2023-07-22T02:38:51;18.85;;;3.85;;
11488;SDS011;5801;50.804;12.638;2023-07-22T02:41:17;10.27;;;3.75;;
11488;SDS011;5801;50.804;12.638;2023-07-22T02:43:43;8.48;;;3.35;;
11488;SDS011;5801;50.804;12.638;2023-07-22T02:46:09;20.08;;;4.95;;
11488;SDS011;5801;50.804;12.638;2023-07-22T02:48:35;10.77;;;3.58;;
11488;SDS011;5801;50.804;12.638;2023-07-22T02:51:05;13.63;;;3.40;;
11488;SDS011;5801;50.804;12.638;2023-07-22T02:53:32;26.38;;;3.58;;
11488;SDS011;5801;50.804;12.638;2023-07-22T02:55:59;12.27;;;4.25;;
11488;SDS011;5801;50.804;12.638;2023-07-22T02:58:26;17.88;;;3.88;;
11488;SDS011;5801;50.804;12.638;2023-07-22T03:00:52;17.77;;;4.13;;
11488;SDS011;5801;50.804;12.638;2023-07-22T03:03:18;14.45;;;4.00;;
11488;SDS011;5801;50.804;12.638;2023-07-22T03:05:44;24.17;;;6.20;;
11488;SDS011;5801;50.804;12.638;2023-07-22T03:08:10;25.05;;;4.18;;
11488;SDS011;5801;50.804;12.638;2023-07-22T03:10:36;14.68;;;4.20;;
11488;SDS011;5801;50.804;12.638;2023-07-22T03:13:03;25.10;;;4.53;;
11488;SDS011;5801;50.804;12.638;2023-07-22T03:15:29;26.80;;;3.83;;
11488;SDS011;5801;50.804;12.638;2023-07-22T03:17:55;13.80;;;3.75;;
11488;SDS011;5801;50.804;12.638;2023-07-22T03:20:24;22.58;;;4.45;;
11488;SDS011;5801;50.804;12.638;2023-07-22T03:22:50;21.90;;;3.97;;
11488;SDS011;5801;50.804;12.638;2023-07-22T03:25:16;28.25;;;4.70;;
11488;SDS011;5801;50.804;12.638;2023-07-22T03:27:44;20.33;;;4.32;;
11488;SDS011;5801;50.804;12.638;2023-07-22T03:30:12;24.85;;;4.30;;
11488;SDS011;5801;50.804;12.638;2023-07-22T03:32:42;15.90;;;3.65;;
11488;SDS011;5801;50.804;12.638;2023-07-22T03:35:10;11.70;;;4.13;;
11488;SDS011;5801;50.804;12.638;2023-07-22T03:37:36;13.85;;;3.72;;
11488;SDS011;5801;50.804;12.638;2023-07-22T03:40:03;16.25;;;4.20;;
11488;SDS011;5801;50.804;12.638;2023-07-22T03:42:42;15.30;;;4.18;;
11488;SDS011;5801;50.804;12.638;2023-07-22T03:45:08;13.98;;;4.18;;
11488;SDS011;5801;50.804;12.638;2023-07-22T03:47:35;19.08;;;4.50;;
11488;SDS011;5801;50.804;12.638;2023-07-22T03:50:01;19.48;;;4.30;;
11488;SDS011;5801;50.804;12.638;2023-07-22T03:52:27;18.25;;;3.58;;
11488;SDS011;5801;50.804;12.638;2023-07-22T03:54:53;11.07;;;4.03;;
11488;SDS011;5801;50.804;12.638;2023-07-22T03:57:24;18.13;;;3.85;;
11488;SDS011;5801;50.804;12.638;2023-07-22T03:59:54;14.57;;;4.68;;
11488;SDS011;5801;50.804;12.638;2023-07-22T04:02:20;18.13;;;3.70;;
11488;SDS011;5801;50.804;12.638;2023-07-22T04:04:47;10.88;;;4.25;;
11488;SDS011;5801;50.804;12.638;2023-07-22T04:07:13;23.75;;;4.38;;
11488;SDS011;5801;50.804;12.638;2023-07-22T04:09:40;23.27;;;5.72;;
11488;SDS011;5801;50.804;12.638;2023-07-22T04:12:06;14.50;;;4.10;;
11488;SDS011;5801;50.804;12.638;2023-07-22T04:14:32;18.05;;;4.28;;
11488;SDS011;5801;50.804;12.638;2023-07-22T04:16:58;12.82;;;4.18;;
11488;SDS011;5801;50.804;12.638;2023-07-22T04:19:24;26.52;;;4.57;;
11488;SDS011;5801;50.804;12.638;2023-07-22T04:21:50;18.38;;;4.85;;
11488;SDS011;5801;50.804;12.638;2023-07-22T04:24:16;17.00;;;3.97;;
11488;SDS011;5801;50.804;12.638;2023-07-22T04:26:43;19.05;;;3.75;;
11488;SDS011;5801;50.804;12.638;2023-07-22T04:29:10;20.33;;;4.60;;
11488;SDS011;5801;50.804;12.638;2023-07-22T04:31:37;29.38;;;4.50;;
11488;SDS011;5801;50.804;12.638;2023-07-22T04:34:04;25.40;;;5.18;;
11488;SDS011;5801;50.804;12.638;2023-07-22T04:36:31;16.20;;;4.80;;
11488;SDS011;5801;50.804;12.638;2023-07-22T04:38:57;9.48;;;3.83;;
11488;SDS011;5801;50.804;12.638;2023-07-22T04:41:23;14.50;;;4.72;;
11488;SDS011;5801;50.804;12.638;2023-07-22T04:43:50;10.00;;;3.80;;
11488;SDS011;5801;50.804;12.638;2023-07-22T04:46:16;18.40;;;3.35;;
11488;SDS011;5801;50.804;12.638;2023-07-22T04:48:42;12.10;;;3.28;;
11488;SDS011;5801;50.804;12.638;2023-07-22T04:51:08;14.07;;;3.88;;
11488;SDS011;5801;50.804;12.638;2023-07-22T04:53:34;14.57;;;3.45;;
11488;SDS011;5801;50.804;12.638;2023-07-22T04:56:00;6.90;;;2.92;;
11488;SDS011;5801;50.804;12.638;2023-07-22T04:58:27;7.15;;;3.25;;
11488;SDS011;5801;50.804;12.638;2023-07-22T05:00:53;5.03;;;2.80;;
11488;SDS011;5801;50.804;12.638;2023-07-22T05:03:19;5.53;;;2.67;;
11488;SDS011;5801;50.804;12.638;2023-07-22T05:05:45;8.43;;;3.33;;
11488;SDS011;5801;50.804;12.638;2023-07-22T05:08:11;3.83;;;2.80;;
11488;SDS011;5801;50.804;12.638;2023-07-22T05:10:37;7.13;;;3.20;;
11488;SDS011;5801;50.804;12.638;2023-07-22T05:13:04;6.55;;;2.92;;
11488;SDS011;5801;50.804;12.638;2023-07-22T05:15:30;7.95;;;2.90;;
11488;SDS011;5801;50.804;12.638;2023-07-22T05:17:55;5.28;;;2.78;;
11488;SDS011;5801;50.804;12.638;2023-07-22T05:20:22;7.97;;;2.92;;
11488;SDS011;5801;50.804;12.638;2023-07-22T05:22:47;8.30;;;3.53;;
11488;SDS011;5801;50.804;12.638;2023-07-22T05:25:13;5.60;;;2.75;;
11488;SDS011;5801;50.804;12.638;2023-07-22T05:27:40;3.83;;;3.22;;
11488;SDS011;5801;50.804;12.638;2023-07-22T05:30:06;5.90;;;3.42;;
11488;SDS011;5801;50.804;12.638;2023-07-22T05:32:32;4.85;;;3.45;;
11488;SDS011;5801;50.804;12.638;2023-07-22T05:34:58;5.55;;;3.58;;
11488;SDS011;5801;50.804;12.638;2023-07-22T05:37:25;7.57;;;3.05;;
11488;SDS011;5801;50.804;12.638;2023-07-22T05:39:50;4.25;;;3.15;;
11488;SDS011;5801;50.804;12.638;2023-07-22T05:42:17;6.53;;;3.33;;
11488;SDS011;5801;50.804;12.638;2023-07-22T05:44:43;5.07;;;2.95;;
11488;SDS011;5801;50.804;12.638;2023-07-22T05:47:09;3.72;;;3.05;;
11488;SDS011;5801;50.804;12.638;2023-07-22T05:49:35;7.30;;;2.97;;
11488;SDS011;5801;50.804;12.638;2023-07-22T05:52:01;9.00;;;3.42;;
11488;SDS011;5801;50.804;12.638;2023-07-22T05:54:27;8.30;;;3.38;;
11488;SDS011;5801;50.804;12.638;2023-07-22T05:56:54;6.28;;;3.63;;
11488;SDS011;5801;50.804;12.638;2023-07-22T05:59:20;4.88;;;3.35;;
11488;SDS011;5801;50.804;12.638;2023-07-22T06:01:45;5.15;;;3.40;;
11488;SDS011;5801;50.804;12.638;2023-07-22T06:04:11;4.88;;;3.20;;
11488;SDS011;5801;50.804;12.638;2023-07-22T06:06:38;8.35;;;3.92;;
11488;SDS011;5801;50.804;12.638;2023-07-22T06:09:04;6.63;;;3.33;;
11488;SDS011;5801;50.804;12.638;2023-07-22T06:11:29;4.50;;;3.20;;
11488;SDS011;5801;50.804;12.638;2023-07-22T06:13:56;8.43;;;3.65;;
11488;SDS011;5801;50.804;12.638;2023-07-22T06:16:22;4.20;;;2.85;;
11488;SDS011;5801;50.804;12.638;2023-07-22T06:18:48;5.40;;;3.75;;
11488;SDS011;5801;50.804;12.638;2023-07-22T06:21:14;4.40;;;3.47;;
11488;SDS011;5801;50.804;12.638;2023-07-22T06:23:41;5.53;;;3.83;;
11488;SDS011;5801;50.804;12.638;2023-07-22T06:26:07;4.88;;;3.85;;
11488;SDS011;5801;50.804;12.638;2023-07-22T06:28:33;8.25;;;3.78;;
11488;SDS011;5801;50.804;12.638;2023-07-22T06:30:59;8.23;;;3.88;;
11488;SDS011;5801;50.804;12.638;2023-07-22T06:33:25;6.13;;;4.07;;
11488;SDS011;5801;50.804;12.638;2023-07-22T06:35:51;9.32;;;4.18;;
11488;SDS011;5801;50.804;12.638;2023-07-22T06:38:17;9.35;;;4.88;;
11488;SDS011;5801;50.804;12.638;2023-07-22T06:40:43;6.13;;;4.13;;
11488;SDS011;5801;50.804;12.638;2023-07-22T06:43:09;8.35;;;3.78;;
11488;SDS011;5801;50.804;12.638;2023-07-22T06:45:35;6.80;;;4.10;;
11488;SDS011;5801;50.804;12.638;2023-07-22T06:48:02;5.22;;;3.72;;
11488;SDS011;5801;50.804;12.638;2023-07-22T06:50:28;7.03;;;4.30;;
11488;SDS011;5801;50.804;12.638;2023-07-22T06:52:54;6.15;;;3.47;;
11488;SDS011;5801;50.804;12.638;2023-07-22T06:55:20;9.18;;;3.88;;
11488;SDS011;5801;50.804;12.638;2023-07-22T06:57:48;8.50;;;4.00;;
11488;SDS011;5801;50.804;12.638;2023-07-22T07:00:14;7.80;;;3.80;;
11488;SDS011;5801;50.804;12.638;2023-07-22T07:02:40;7.38;;;4.57;;
11488;SDS011;5801;50.804;12.638;2023-07-22T07:05:07;5.70;;;4.18;;
11488;SDS011;5801;50.804;12.638;2023-07-22T07:07:33;5.45;;;4.13;;
11488;SDS011;5801;50.804;12.638;2023-07-22T07:09:59;6.03;;;4.03;;
11488;SDS011;5801;50.804;12.638;2023-07-22T07:12:25;5.63;;;4.10;;
11488;SDS011;5801;50.804;12.638;2023-07-22T07:14:51;4.50;;;3.38;;
11488;SDS011;5801;50.804;12.638;2023-07-22T07:17:18;6.18;;;4.50;;
11488;SDS011;5801;50.804;12.638;2023-07-22T07:19:44;6.72;;;4.50;;
11488;SDS011;5801;50.804;12.638;2023-07-22T07:22:09;6.38;;;4.00;;
11488;SDS011;5801;50.804;12.638;2023-07-22T07:24:36;8.13;;;4.05;;
11488;SDS011;5801;50.804;12.638;2023-07-22T07:27:02;6.63;;;3.70;;
11488;SDS011;5801;50.804;12.638;2023-07-22T07:29:27;5.55;;;3.97;;
11488;SDS011;5801;50.804;12.638;2023-07-22T07:31:54;7.50;;;4.85;;
11488;SDS011;5801;50.804;12.638;2023-07-22T07:34:20;5.70;;;4.20;;
11488;SDS011;5801;50.804;12.638;2023-07-22T07:36:46;6.05;;;4.80;;
11488;SDS011;5801;50.804;12.638;2023-07-22T07:39:13;6.15;;;4.25;;
11488;SDS011;5801;50.804;12.638;2023-07-22T07:41:39;5.30;;;3.78;;
11488;SDS011;5801;50.804;12.638;2023-07-22T07:44:05;6.40;;;4.85;;
11488;SDS011;5801;50.804;12.638;2023-07-22T07:46:31;7.22;;;4.40;;
11488;SDS011;5801;50.804;12.638;2023-07-22T07:48:58;6.28;;;4.40;;
11488;SDS011;5801;50.804;12.638;2023-07-22T07:51:28;5.57;;;4.28;;
11488;SDS011;5801;50.804;12.638;2023-07-22T07:53:56;7.15;;;4.45;;
11488;SDS011;5801;50.804;12.638;2023-07-22T07:56:24;12.15;;;7.15;;
11488;SDS011;5801;50.804;12.638;2023-07-22T07:58:52;9.55;;;5.20;;
11488;SDS011;5801;50.804;12.638;2023-07-22T08:01:19;8.40;;;4.70;;
11488;SDS011;5801;50.804;12.638;2023-07-22T08:03:46;11.88;;;6.13;;
11488;SDS011;5801;50.804;12.638;2023-07-22T08:06:12;6.07;;;4.00;;
11488;SDS011;5801;50.804;12.638;2023-07-22T08:08:38;6.68;;;4.43;;
11488;SDS011;5801;50.804;12.638;2023-07-22T08:11:06;4.95;;;3.85;;
11488;SDS011;5801;50.804;12.638;2023-07-22T08:13:38;5.88;;;4.18;;
11488;SDS011;5801;50.804;12.638;2023-07-22T08:16:06;7.82;;;4.65;;
11488;SDS011;5801;50.804;12.638;2023-07-22T08:18:34;8.00;;;4.25;;
11488;SDS011;5801;50.804;12.638;2023-07-22T08:21:01;4.57;;;3.72;;
11488;SDS011;5801;50.804;12.638;2023-07-22T08:23:28;4.40;;;3.60;;
11488;SDS011;5801;50.804;12.638;2023-07-22T08:25:55;6.88;;;4.97;;
11488;SDS011;5801;50.804;12.638;2023-07-22T08:28:21;7.53;;;4.15;;
11488;SDS011;5801;50.804;12.638;2023-07-22T08:30:50;5.95;;;3.95;;
11488;SDS011;5801;50.804;12.638;2023-07-22T08:33:19;10.45;;;4.55;;
11488;SDS011;5801;50.804;12.638;2023-07-22T08:35:45;5.45;;;3.70;;
11488;SDS011;5801;50.804;12.638;2023-07-22T08:38:12;3.63;;;2.90;;
11488;SDS011;5801;50.804;12.638;2023-07-22T08:40:39;4.88;;;4.15;;
11488;SDS011;5801;50.804;12.638;2023-07-22T08:43:09;4.65;;;3.60;;
11488;SDS011;5801;50.804;12.638;2023-07-22T08:45:36;4.55;;;2.90;;
11488;SDS011;5801;50.804;12.638;2023-07-22T08:48:04;8.82;;;3.67;;
11488;SDS011;5801;50.804;12.638;2023-07-22T08:50:57;3.97;;;3.20;;
11488;SDS011;5801;50.804;12.638;2023-07-22T08:53:44;3.50;;;2.53;;
11488;SDS011;5801;50.804;12.638;2023-07-22T08:56:11;6.00;;;2.47;;
11488;SDS011;5801;50.804;12.638;2023-07-22T08:58:37;5.32;;;2.53;;
11488;SDS011;5801;50.804;12.638;2023-07-22T09:01:04;11.60;;;2.28;;
11488;SDS011;5801;50.804;12.638;2023-07-22T09:03:31;3.45;;;2.50;;
11488;SDS011;5801;50.804;12.638;2023-07-22T09:05:57;8.32;;;3.13;;
11488;SDS011;5801;50.804;12.638;2023-07-22T09:08:23;6.32;;;2.38;;
11488;SDS011;5801;50.804;12.638;2023-07-22T09:10:50;2.83;;;2.05;;
11488;SDS011;5801;50.804;12.638;2023-07-22T09:13:15;3.03;;;2.35;;
11488;SDS011;5801;50.804;12.638;2023-07-22T09:15:45;2.53;;;2.10;;
11488;SDS011;5801;50.804;12.638;2023-07-22T09:18:13;2.97;;;2.40;;
11488;SDS011;5801;50.804;12.638;2023-07-22T09:20:40;3.58;;;2.40;;
11488;SDS011;5801;50.804;12.638;2023-07-22T09:23:07;2.83;;;1.92;;
11488;SDS011;5801;50.804;12.638;2023-07-22T09:25:33;2.92;;;2.33;;
11488;SDS011;5801;50.804;12.638;2023-07-22T09:27:59;3.00;;;2.58;;
11488;SDS011;5801;50.804;12.638;2023-07-22T09:30:29;3.28;;;2.35;;
11488;SDS011;5801;50.804;12.638;2023-07-22T09:32:59;4.07;;;2.53;;
11488;SDS011;5801;50.804;12.638;2023-07-22T09:35:28;3.33;;;2.55;;
11488;SDS011;5801;50.804;12.638;2023-07-22T09:37:55;5.60;;;2.28;;
11488;SDS011;5801;50.804;12.638;2023-07-22T09:42:49;8.25;;;2.22;;
11488;SDS011;5801;50.804;12.638;2023-07-22T09:45:17;4.75;;;2.00;;
11488;SDS011;5801;50.804;12.638;2023-07-22T09:47:46;1.63;;;1.50;;
11488;SDS011;5801;50.804;12.638;2023-07-22T09:50:15;2.03;;;1.85;;
11488;SDS011;5801;50.804;12.638;2023-07-22T09:55:16;1.98;;;1.77;;
11488;SDS011;5801;50.804;12.638;2023-07-22T09:58:06;4.07;;;2.50;;
11488;SDS011;5801;50.804;12.638;2023-07-22T10:00:34;4.03;;;2.10;;
11488;SDS011;5801;50.804;12.638;2023-07-22T10:03:01;2.85;;;2.20;;
11488;SDS011;5801;50.804;12.638;2023-07-22T10:05:32;4.00;;;2.30;;
11488;SDS011;5801;50.804;12.638;2023-07-22T10:07:59;4.63;;;2.15;;
11488;SDS011;5801;50.804;12.638;2023-07-22T10:10:31;2.75;;;2.08;;
11488;SDS011;5801;50.804;12.638;2023-07-22T10:13:03;2.78;;;1.98;;
11488;SDS011;5801;50.804;12.638;2023-07-22T10:15:30;7.50;;;2.17;;
11488;SDS011;5801;50.804;12.638;2023-07-22T10:18:01;2.83;;;1.92;;
11488;SDS011;5801;50.804;12.638;2023-07-22T10:20:28;5.18;;;2.25;;
11488;SDS011;5801;50.804;12.638;2023-07-22T10:22:55;2.45;;;1.83;;
11488;SDS011;5801;50.804;12.638;2023-07-22T10:25:21;2.20;;;2.00;;
11488;SDS011;5801;50.804;12.638;2023-07-22T10:27:49;3.00;;;1.90;;
11488;SDS011;5801;50.804;12.638;2023-07-22T10:30:17;2.22;;;1.88;;
11488;SDS011;5801;50.804;12.638;2023-07-22T10:32:47;3.20;;;2.13;;
11488;SDS011;5801;50.804;12.638;2023-07-22T10:38:13;4.22;;;2.13;;
11488;SDS011;5801;50.804;12.638;2023-07-22T10:40:50;2.15;;;1.60;;
11488;SDS011;5801;50.804;12.638;2023-07-22T10:43:27;4.40;;;2.30;;
11488;SDS011;5801;50.804;12.638;2023-07-22T10:45:57;2.10;;;1.83;;
11488;SDS011;5801;50.804;12.638;2023-07-22T10:48:27;2.03;;;1.73;;
11488;SDS011;5801;50.804;12.638;2023-07-22T10:51:07;2.42;;;1.95;;
11488;SDS011;5801;50.804;12.638;2023-07-22T10:53:42;3.33;;;1.98;;
11488;SDS011;5801;50.804;12.638;2023-07-22T10:56:13;2.42;;;2.22;;
11488;SDS011;5801;50.804;12.638;2023-07-22T11:01:24;5.22;;;2.13;;
11488;SDS011;5801;50.804;12.638;2023-07-22T11:12:00;6.95;;;2.42;;
11488;SDS011;5801;50.804;12.638;2023-07-22T11:14:28;2.88;;;2.30;;
11488;SDS011;5801;50.804;12.638;2023-07-22T11:16:56;2.58;;;2.13;;
11488;SDS011;5801;50.804;12.638;2023-07-22T11:19:24;3.80;;;2.15;;
11488;SDS011;5801;50.804;12.638;2023-07-22T11:21:51;6.07;;;2.13;;
11488;SDS011;5801;50.804;12.638;2023-07-22T11:24:19;2.20;;;1.85;;
11488;SDS011;5801;50.804;12.638;2023-07-22T11:26:47;4.93;;;2.30;;
11488;SDS011;5801;50.804;12.638;2023-07-22T11:29:14;2.13;;;1.92;;
11488;SDS011;5801;50.804;12.638;2023-07-22T11:31:44;3.83;;;2.35;;
11488;SDS011;5801;50.804;12.638;2023-07-22T11:34:12;3.00;;;2.10;;
11488;SDS011;5801;50.804;12.638;2023-07-22T11:36:40;4.20;;;2.08;;
11488;SDS011;5801;50.804;12.638;2023-07-22T11:39:14;2.88;;;2.30;;
11488;SDS011;5801;50.804;12.638;2023-07-22T11:41:44;2.58;;;2.13;;
11488;SDS011;5801;50.804;12.638;2023-07-22T11:44:11;4.03;;;2.25;;
11488;SDS011;5801;50.804;12.638;2023-07-22T11:46:52;2.72;;;1.92;;
11488;SDS011;5801;50.804;12.638;2023-07-22T11:54:28;3.67;;;2.30;;
11488;SDS011;5801;50.804;12.638;2023-07-22T11:56:56;2.05;;;1.80;;
11488;SDS011;5801;50.804;12.638;2023-07-22T11:59:37;2.33;;;2.03;;
11488;SDS011;5801;50.804;12.638;2023-07-22T12:02:05;3.13;;;2.17;;
11488;SDS011;5801;50.804;12.638;2023-07-22T12:04:32;2.45;;;2.08;;
11488;SDS011;5801;50.804;12.638;2023-07-22T12:07:01;3.35;;;2.05;;
11488;SDS011;5801;50.804;12.638;2023-07-22T12:09:29;3.20;;;2.25;;
11488;SDS011;5801;50.804;12.638;2023-07-22T12:11:56;3.42;;;2.00;;
11488;SDS011;5801;50.804;12.638;2023-07-22T12:14:23;2.75;;;1.85;;
11488;SDS011;5801;50.804;12.638;2023-07-22T12:16:54;3.15;;;2.03;;
11488;SDS011;5801;50.804;12.638;2023-07-22T12:19:24;3.05;;;2.30;;
11488;SDS011;5801;50.804;12.638;2023-07-22T12:21:52;2.90;;;2.28;;
11488;SDS011;5801;50.804;12.638;2023-07-22T12:24:18;5.18;;;2.33;;
11488;SDS011;5801;50.804;12.638;2023-07-22T12:26:44;3.05;;;2.33;;
11488;SDS011;5801;50.804;12.638;2023-07-22T12:29:10;2.95;;;1.83;;
11488;SDS011;5801;50.804;12.638;2023-07-22T12:31:36;2.70;;;1.95;;
11488;SDS011;5801;50.804;12.638;2023-07-22T12:34:02;2.60;;;1.80;;
11488;SDS011;5801;50.804;12.638;2023-07-22T12:36:28;3.22;;;2.20;;
11488;SDS011;5801;50.804;12.638;2023-07-22T12:38:55;2.63;;;2.25;;
11488;SDS011;5801;50.804;12.638;2023-07-22T12:41:21;4.57;;;2.17;;
11488;SDS011;5801;50.804;12.638;2023-07-22T12:43:47;3.55;;;2.30;;
11488;SDS011;5801;50.804;12.638;2023-07-22T12:46:14;4.03;;;2.35;;
11488;SDS011;5801;50.804;12.638;2023-07-22T12:48:41;3.00;;;2.33;;
11488;SDS011;5801;50.804;12.638;2023-07-22T12:51:07;2.53;;;1.90;;
11488;SDS011;5801;50.804;12.638;2023-07-22T12:53:34;2.28;;;1.70;;
11488;SDS011;5801;50.804;12.638;2023-07-22T12:56:00;2.20;;;1.70;;
11488;SDS011;5801;50.804;12.638;2023-07-22T12:58:28;2.75;;;2.22;;
11488;SDS011;5801;50.804;12.638;2023-07-22T13:00:54;4.82;;;2.15;;
11488;SDS011;5801;50.804;12.638;2023-07-22T13:03:20;2.90;;;2.40;;
11488;SDS011;5801;50.804;12.638;2023-07-22T13:05:46;15.40;;;2.90;;
11488;SDS011;5801;50.804;12.638;2023-07-22T13:08:12;5.53;;;2.28;;
11488;SDS011;5801;50.804;12.638;2023-07-22T13:10:38;6.40;;;2.15;;
11488;SDS011;5801;50.804;12.638;2023-07-22T13:13:08;26.65;;;3.97;;
11488;SDS011;5801;50.804;12.638;2023-07-22T13:15:35;34.17;;;4.38;;
11488;SDS011;5801;50.804;12.638;2023-07-22T13:18:01;19.08;;;3.90;;
11488;SDS011;5801;50.804;12.638;2023-07-22T13:20:27;2.75;;;1.85;;
11488;SDS011;5801;50.804;12.638;2023-07-22T13:22:54;8.07;;;3.08;;
11488;SDS011;5801;50.804;12.638;2023-07-22T13:25:20;4.60;;;2.13;;
11488;SDS011;5801;50.804;12.638;2023-07-22T13:27:46;3.50;;;2.00;;
11488;SDS011;5801;50.804;12.638;2023-07-22T13:30:12;3.38;;;2.35;;
11488;SDS011;5801;50.804;12.638;2023-07-22T13:32:38;37.80;;;4.18;;
11488;SDS011;5801;50.804;12.638;2023-07-22T13:35:04;3.00;;;2.40;;
11488;SDS011;5801;50.804;12.638;2023-07-22T13:37:31;4.35;;;2.42;;
11488;SDS011;5801;50.804;12.638;2023-07-22T13:39:57;2.83;;;2.05;;
11488;SDS011;5801;50.804;12.638;2023-07-22T13:42:23;2.75;;;2.40;;
11488;SDS011;5801;50.804;12.638;2023-07-22T13:44:49;2.88;;;2.00;;
11488;SDS011;5801;50.804;12.638;2023-07-22T13:47:15;5.43;;;2.38;;
11488;SDS011;5801;50.804;12.638;2023-07-22T13:49:41;3.90;;;2.53;;
11488;SDS011;5801;50.804;12.638;2023-07-22T13:52:08;2.00;;;1.65;;
11488;SDS011;5801;50.804;12.638;2023-07-22T13:54:34;2.97;;;1.88;;
11488;SDS011;5801;50.804;12.638;2023-07-22T13:56:59;3.40;;;1.92;;
11488;SDS011;5801;50.804;12.638;2023-07-22T13:59:25;4.75;;;2.08;;
11488;SDS011;5801;50.804;12.638;2023-07-22T14:01:51;2.78;;;1.88;;
11488;SDS011;5801;50.804;12.638;2023-07-22T14:04:17;2.50;;;2.22;;
11488;SDS011;5801;50.804;12.638;2023-07-22T14:06:43;3.90;;;2.45;;
11488;SDS011;5801;50.804;12.638;2023-07-22T14:09:09;3.47;;;2.30;;
11488;SDS011;5801;50.804;12.638;2023-07-22T14:11:35;4.22;;;2.65;;
11488;SDS011;5801;50.804;12.638;2023-07-22T14:14:01;3.65;;;2.05;;
11488;SDS011;5801;50.804;12.638;2023-07-22T14:16:27;2.40;;;2.00;;
11488;SDS011;5801;50.804;12.638;2023-07-22T14:18:53;2.40;;;1.90;;
11488;SDS011;5801;50.804;12.638;2023-07-22T14:21:20;3.25;;;2.58;;
11488;SDS011;5801;50.804;12.638;2023-07-22T14:23:46;4.25;;;2.42;;
11488;SDS011;5801;50.804;12.638;2023-07-22T14:26:12;3.83;;;2.65;;
11488;SDS011;5801;50.804;12.638;2023-07-22T14:28:38;2.95;;;2.00;;
11488;SDS011;5801;50.804;12.638;2023-07-22T14:31:04;3.90;;;2.85;;
11488;SDS011;5801;50.804;12.638;2023-07-22T14:33:30;3.75;;;2.95;;
11488;SDS011;5801;50.804;12.638;2023-07-22T14:35:56;4.22;;;2.40;;
11488;SDS011;5801;50.804;12.638;2023-07-22T14:38:22;4.57;;;2.67;;
11488;SDS011;5801;50.804;12.638;2023-07-22T14:40:48;3.47;;;2.63;;
11488;SDS011;5801;50.804;12.638;2023-07-22T14:43:14;2.60;;;2.13;;
11488;SDS011;5801;50.804;12.638;2023-07-22T14:45:41;4.55;;;2.28;;
11488;SDS011;5801;50.804;12.638;2023-07-22T14:48:07;3.25;;;2.38;;
11488;SDS011;5801;50.804;12.638;2023-07-22T14:50:33;7.03;;;2.75;;
11488;SDS011;5801;50.804;12.638;2023-07-22T14:52:59;4.93;;;2.55;;
11488;SDS011;5801;50.804;12.638;2023-07-22T14:55:26;3.58;;;2.30;;
11488;SDS011;5801;50.804;12.638;2023-07-22T14:57:52;2.30;;;2.10;;
11488;SDS011;5801;50.804;12.638;2023-07-22T15:00:18;6.60;;;2.17;;
11488;SDS011;5801;50.804;12.638;2023-07-22T15:02:44;3.97;;;2.33;;
11488;SDS011;5801;50.804;12.638;2023-07-22T15:05:10;5.75;;;2.67;;